sensor_id;sensor_type;location;lat;lon;timestamp;temperature;humidity
37410;DHT22;23275;48.914;12.566;2023-08-08T00:01:38;9.60;99.90
37410;DHT22;23275;48.914;12.566;2023-08-08T00:04:10;9.60;99.90
37410;DHT22;23275;48.914;12.566;2023-08-08T00:06:36;9.60;99.90
37410;DHT22;23275;48.914;12.566;2023-08-08T00:09:03;9.50;99.90
37410;DHT22;23275;48.914;12.566;2023-08-08T00:11:29;9.60;99.90
37410;DHT22;23275;48.914;12.566;2023-08-08T00:13:56;9.60;99.90
37410;DHT22;23275;48.914;12.566;2023-08-08T00:16:22;9.50;99.90
37410;DHT22;23275;48.914;12.566;2023-08-08T00:18:47;9.50;99.90
37410;DHT22;23275;48.914;12.566;2023-08-08T00:21:15;9.50;99.90
37410;DHT22;23275;48.914;12.566;2023-08-08T00:23:40;9.50;99.90
37410;DHT22;23275;48.914;12.566;2023-08-08T00:26:06;9.40;99.90
37410;DHT22;23275;48.914;12.566;2023-08-08T00:28:31;9.40;99.90
37410;DHT22;23275;48.914;12.566;2023-08-08T00:30:57;9.40;99.90
37410;DHT22;23275;48.914;12.566;2023-08-08T00:33:22;9.40;99.90
37410;DHT22;23275;48.914;12.566;2023-08-08T00:35:48;9.40;99.90
37410;DHT22;23275;48.914;12.566;2023-08-08T00:38:13;9.30;99.90
37410;DHT22;23275;48.914;12.566;2023-08-08T00:40:39;9.30;99.90
37410;DHT22;23275;48.914;12.566;2023-08-08T00:43:05;9.30;99.90
37410;DHT22;23275;48.914;12.566;2023-08-08T00:45:31;9.30;99.90
37410;DHT22;23275;48.914;12.566;2023-08-08T00:47:56;9.20;99.90
37410;DHT22;23275;48.914;12.566;2023-08-08T00:50:22;9.20;99.90
37410;DHT22;23275;48.914;12.566;2023-08-08T00:52:49;9.20;99.90
37410;DHT22;23275;48.914;12.566;2023-08-08T00:55:14;9.20;99.90
37410;DHT22;23275;48.914;12.566;2023-08-08T00:57:40;9.30;99.90
37410;DHT22;23275;48.914;12.566;2023-08-08T01:00:07;9.30;99.90
37410;DHT22;23275;48.914;12.566;2023-08-08T01:02:34;9.30;99.90
37410;DHT22;23275;48.914;12.566;2023-08-08T01:05:00;9.20;99.90
37410;DHT22;23275;48.914;12.566;2023-08-08T01:07:30;9.20;99.90
37410;DHT22;23275;48.914;12.566;2023-08-08T01:10:07;9.20;99.90
37410;DHT22;23275;48.914;12.566;2023-08-08T01:12:40;9.30;99.90
37410;DHT22;23275;48.914;12.566;2023-08-08T01:15:07;9.30;99.90
37410;DHT22;23275;48.914;12.566;2023-08-08T01:17:35;9.40;99.90
37410;DHT22;23275;48.914;12.566;2023-08-08T01:20:02;9.40;99.90
37410;DHT22;23275;48.914;12.566;2023-08-08T01:22:35;9.50;99.90
37410;DHT22;23275;48.914;12.566;2023-08-08T01:25:01;9.50;99.90
37410;DHT22;23275;48.914;12.566;2023-08-08T01:27:28;9.50;99.90
37410;DHT22;23275;48.914;12.566;2023-08-08T01:29:53;9.50;99.90
37410;DHT22;23275;48.914;12.566;2023-08-08T01:32:19;9.50;99.90
37410;DHT22;23275;48.914;12.566;2023-08-08T01:34:45;9.50;99.90
37410;DHT22;23275;48.914;12.566;2023-08-08T01:38:03;9.50;99.90
37410;DHT22;23275;48.914;12.566;2023-08-08T01:40:20;9.50;99.90
37410;DHT22;23275;48.914;12.566;2023-08-08T01:42:48;9.50;99.90
37410;DHT22;23275;48.914;12.566;2023-08-08T01:45:15;9.50;99.90
37410;DHT22;23275;48.914;12.566;2023-08-08T01:47:40;9.50;99.90
37410;DHT22;23275;48.914;12.566;2023-08-08T01:50:07;9.50;99.90
37410;DHT22;23275;48.914;12.566;2023-08-08T01:52:34;9.60;99.90
37410;DHT22;23275;48.914;12.566;2023-08-08T01:55:00;9.60;99.90
37410;DHT22;23275;48.914;12.566;2023-08-08T01:57:25;9.60;99.90
37410;DHT22;23275;48.914;12.566;2023-08-08T01:59:51;9.60;99.90
37410;DHT22;23275;48.914;12.566;2023-08-08T02:02:17;9.60;99.90
37410;DHT22;23275;48.914;12.566;2023-08-08T02:04:43;9.70;99.90
37410;DHT22;23275;48.914;12.566;2023-08-08T02:07:09;9.60;99.90
37410;DHT22;23275;48.914;12.566;2023-08-08T02:09:34;9.70;99.90
37410;DHT22;23275;48.914;12.566;2023-08-08T02:12:00;9.70;99.90
37410;DHT22;23275;48.914;12.566;2023-08-08T02:14:26;9.70;99.90
37410;DHT22;23275;48.914;12.566;2023-08-08T02:16:51;9.70;99.90
37410;DHT22;23275;48.914;12.566;2023-08-08T02:19:17;9.80;99.90
37410;DHT22;23275;48.914;12.566;2023-08-08T02:21:42;9.80;99.90
37410;DHT22;23275;48.914;12.566;2023-08-08T02:24:08;9.90;99.90
37410;DHT22;23275;48.914;12.566;2023-08-08T02:26:33;9.90;99.90
37410;DHT22;23275;48.914;12.566;2023-08-08T02:28:59;9.90;99.90
37410;DHT22;23275;48.914;12.566;2023-08-08T02:31:25;9.90;99.90
37410;DHT22;23275;48.914;12.566;2023-08-08T02:33:50;10.00;99.90
37410;DHT22;23275;48.914;12.566;2023-08-08T02:36:17;10.00;99.90
37410;DHT22;23275;48.914;12.566;2023-08-08T02:38:43;10.00;99.90
37410;DHT22;23275;48.914;12.566;2023-08-08T02:41:09;10.00;99.90
37410;DHT22;23275;48.914;12.566;2023-08-08T02:43:35;10.00;99.90
37410;DHT22;23275;48.914;12.566;2023-08-08T02:46:00;10.10;99.90
37410;DHT22;23275;48.914;12.566;2023-08-08T02:48:26;10.10;99.90
37410;DHT22;23275;48.914;12.566;2023-08-08T02:50:52;10.10;99.90
37410;DHT22;23275;48.914;12.566;2023-08-08T02:53:17;10.10;99.90
37410;DHT22;23275;48.914;12.566;2023-08-08T02:55:43;10.10;99.90
37410;DHT22;23275;48.914;12.566;2023-08-08T02:58:08;10.20;99.90
37410;DHT22;23275;48.914;12.566;2023-08-08T03:00:34;10.20;99.90
37410;DHT22;23275;48.914;12.566;2023-08-08T03:02:59;10.20;99.90
37410;DHT22;23275;48.914;12.566;2023-08-08T03:05:25;10.30;99.90
37410;DHT22;23275;48.914;12.566;2023-08-08T03:07:51;10.30;99.90
37410;DHT22;23275;48.914;12.566;2023-08-08T03:10:16;10.30;99.90
37410;DHT22;23275;48.914;12.566;2023-08-08T03:12:42;10.30;99.90
37410;DHT22;23275;48.914;12.566;2023-08-08T03:15:08;10.40;99.90
37410;DHT22;23275;48.914;12.566;2023-08-08T03:17:33;10.40;99.90
37410;DHT22;23275;48.914;12.566;2023-08-08T03:20:00;10.40;99.90
37410;DHT22;23275;48.914;12.566;2023-08-08T03:22:26;10.40;99.90
37410;DHT22;23275;48.914;12.566;2023-08-08T03:24:51;10.40;99.90
37410;DHT22;23275;48.914;12.566;2023-08-08T03:27:17;10.40;99.90
37410;DHT22;23275;48.914;12.566;2023-08-08T03:29:42;10.40;99.90
37410;DHT22;23275;48.914;12.566;2023-08-08T03:32:08;10.40;99.90
37410;DHT22;23275;48.914;12.566;2023-08-08T03:34:34;10.40;99.90
37410;DHT22;23275;48.914;12.566;2023-08-08T03:36:59;10.40;99.90
37410;DHT22;23275;48.914;12.566;2023-08-08T03:39:25;10.40;99.90
37410;DHT22;23275;48.914;12.566;2023-08-08T03:41:50;10.50;99.90
37410;DHT22;23275;48.914;12.566;2023-08-08T03:44:16;10.50;99.90
37410;DHT22;23275;48.914;12.566;2023-08-08T03:46:41;10.50;99.90
37410;DHT22;23275;48.914;12.566;2023-08-08T03:49:07;10.60;99.90
37410;DHT22;23275;48.914;12.566;2023-08-08T03:51:33;10.50;99.90
37410;DHT22;23275;48.914;12.566;2023-08-08T03:53:58;10.60;99.90
37410;DHT22;23275;48.914;12.566;2023-08-08T03:56:24;10.60;99.90
37410;DHT22;23275;48.914;12.566;2023-08-08T03:58:50;10.60;99.90
37410;DHT22;23275;48.914;12.566;2023-08-08T04:01:15;10.60;99.90
37410;DHT22;23275;48.914;12.566;2023-08-08T04:03:41;10.60;99.90
37410;DHT22;23275;48.914;12.566;2023-08-08T04:06:06;10.60;99.90
37410;DHT22;23275;48.914;12.566;2023-08-08T04:08:32;10.60;99.90
37410;DHT22;23275;48.914;12.566;2023-08-08T04:10:58;10.60;99.90
37410;DHT22;23275;48.914;12.566;2023-08-08T04:13:23;10.60;99.90
37410;DHT22;23275;48.914;12.566;2023-08-08T04:15:49;10.60;99.90
37410;DHT22;23275;48.914;12.566;2023-08-08T04:18:17;10.60;99.90
37410;DHT22;23275;48.914;12.566;2023-08-08T04:20:43;10.60;99.90
37410;DHT22;23275;48.914;12.566;2023-08-08T04:23:08;10.60;99.90
37410;DHT22;23275;48.914;12.566;2023-08-08T04:25:34;10.60;99.90
37410;DHT22;23275;48.914;12.566;2023-08-08T04:27:59;10.70;99.90
37410;DHT22;23275;48.914;12.566;2023-08-08T04:30:25;10.70;99.90
37410;DHT22;23275;48.914;12.566;2023-08-08T04:32:50;10.70;99.90
37410;DHT22;23275;48.914;12.566;2023-08-08T04:35:16;10.70;99.90
37410;DHT22;23275;48.914;12.566;2023-08-08T04:37:41;10.70;99.90
37410;DHT22;23275;48.914;12.566;2023-08-08T04:40:08;10.70;99.90
37410;DHT22;23275;48.914;12.566;2023-08-08T04:42:34;10.80;99.90
37410;DHT22;23275;48.914;12.566;2023-08-08T04:45:00;10.80;99.90
37410;DHT22;23275;48.914;12.566;2023-08-08T04:47:25;10.90;99.90
37410;DHT22;23275;48.914;12.566;2023-08-08T04:49:51;10.90;99.90
37410;DHT22;23275;48.914;12.566;2023-08-08T04:52:16;10.90;99.90
37410;DHT22;23275;48.914;12.566;2023-08-08T04:54:42;10.90;99.90
37410;DHT22;23275;48.914;12.566;2023-08-08T04:57:08;10.90;99.90
37410;DHT22;23275;48.914;12.566;2023-08-08T04:59:38;10.90;99.90
37410;DHT22;23275;48.914;12.566;2023-08-08T05:02:04;11.00;99.90
37410;DHT22;23275;48.914;12.566;2023-08-08T05:04:31;11.00;99.90
37410;DHT22;23275;48.914;12.566;2023-08-08T05:06:56;11.10;99.90
37410;DHT22;23275;48.914;12.566;2023-08-08T05:09:23;11.10;99.90
37410;DHT22;23275;48.914;12.566;2023-08-08T05:11:59;11.10;99.90
37410;DHT22;23275;48.914;12.566;2023-08-08T05:14:24;11.20;99.90
37410;DHT22;23275;48.914;12.566;2023-08-08T05:16:50;11.20;99.90
37410;DHT22;23275;48.914;12.566;2023-08-08T05:19:16;11.30;99.90
37410;DHT22;23275;48.914;12.566;2023-08-08T05:21:41;11.30;99.90
37410;DHT22;23275;48.914;12.566;2023-08-08T05:24:08;11.30;99.90
37410;DHT22;23275;48.914;12.566;2023-08-08T05:26:33;11.40;99.90
37410;DHT22;23275;48.914;12.566;2023-08-08T05:28:59;11.40;99.90
37410;DHT22;23275;48.914;12.566;2023-08-08T05:31:24;11.40;99.90
37410;DHT22;23275;48.914;12.566;2023-08-08T05:33:50;11.50;99.90
37410;DHT22;23275;48.914;12.566;2023-08-08T05:36:15;11.60;99.90
37410;DHT22;23275;48.914;12.566;2023-08-08T05:38:41;11.70;99.90
37410;DHT22;23275;48.914;12.566;2023-08-08T05:41:07;11.90;99.90
37410;DHT22;23275;48.914;12.566;2023-08-08T05:43:33;11.90;99.90
37410;DHT22;23275;48.914;12.566;2023-08-08T05:45:58;11.90;99.90
37410;DHT22;23275;48.914;12.566;2023-08-08T05:48:24;11.90;99.90
37410;DHT22;23275;48.914;12.566;2023-08-08T05:50:53;11.90;99.90
37410;DHT22;23275;48.914;12.566;2023-08-08T05:53:18;12.00;99.90
37410;DHT22;23275;48.914;12.566;2023-08-08T05:55:44;12.00;99.90
37410;DHT22;23275;48.914;12.566;2023-08-08T05:58:09;12.10;99.90
37410;DHT22;23275;48.914;12.566;2023-08-08T06:00:35;12.40;99.90
37410;DHT22;23275;48.914;12.566;2023-08-08T06:03:01;12.70;99.90
37410;DHT22;23275;48.914;12.566;2023-08-08T06:05:27;12.80;99.90
37410;DHT22;23275;48.914;12.566;2023-08-08T06:07:53;13.20;99.90
37410;DHT22;23275;48.914;12.566;2023-08-08T06:10:20;13.60;99.90
37410;DHT22;23275;48.914;12.566;2023-08-08T06:12:46;13.90;99.90
37410;DHT22;23275;48.914;12.566;2023-08-08T06:15:11;14.10;99.90
37410;DHT22;23275;48.914;12.566;2023-08-08T06:17:37;14.40;99.90
37410;DHT22;23275;48.914;12.566;2023-08-08T06:20:03;14.50;99.90
37410;DHT22;23275;48.914;12.566;2023-08-08T06:22:28;14.50;99.90
37410;DHT22;23275;48.914;12.566;2023-08-08T06:24:54;14.50;99.90
37410;DHT22;23275;48.914;12.566;2023-08-08T06:27:20;14.40;99.90
37410;DHT22;23275;48.914;12.566;2023-08-08T06:29:46;14.40;99.90
37410;DHT22;23275;48.914;12.566;2023-08-08T06:32:11;14.60;99.90
37410;DHT22;23275;48.914;12.566;2023-08-08T06:34:37;14.90;99.90
37410;DHT22;23275;48.914;12.566;2023-08-08T06:37:03;15.10;99.90
37410;DHT22;23275;48.914;12.566;2023-08-08T06:39:28;15.10;99.90
37410;DHT22;23275;48.914;12.566;2023-08-08T06:41:55;15.10;99.90
37410;DHT22;23275;48.914;12.566;2023-08-08T06:44:21;15.10;99.90
37410;DHT22;23275;48.914;12.566;2023-08-08T06:46:46;15.10;99.90
37410;DHT22;23275;48.914;12.566;2023-08-08T06:49:12;15.30;99.90
37410;DHT22;23275;48.914;12.566;2023-08-08T06:51:38;15.70;99.90
37410;DHT22;23275;48.914;12.566;2023-08-08T06:54:03;16.00;99.90
37410;DHT22;23275;48.914;12.566;2023-08-08T06:56:29;16.30;99.90
37410;DHT22;23275;48.914;12.566;2023-08-08T06:58:56;16.30;99.90
37410;DHT22;23275;48.914;12.566;2023-08-08T07:01:21;16.40;99.90
37410;DHT22;23275;48.914;12.566;2023-08-08T07:03:47;16.40;99.90
37410;DHT22;23275;48.914;12.566;2023-08-08T07:06:12;16.30;99.90
37410;DHT22;23275;48.914;12.566;2023-08-08T07:08:41;16.30;99.90
37410;DHT22;23275;48.914;12.566;2023-08-08T07:11:07;16.60;99.90
37410;DHT22;23275;48.914;12.566;2023-08-08T07:13:33;16.80;99.90
37410;DHT22;23275;48.914;12.566;2023-08-08T07:15:58;17.00;99.90
37410;DHT22;23275;48.914;12.566;2023-08-08T07:18:24;17.20;99.90
37410;DHT22;23275;48.914;12.566;2023-08-08T07:20:50;17.10;99.90
37410;DHT22;23275;48.914;12.566;2023-08-08T07:23:16;17.30;99.90
37410;DHT22;23275;48.914;12.566;2023-08-08T07:25:42;17.30;99.90
37410;DHT22;23275;48.914;12.566;2023-08-08T07:28:07;17.60;99.90
37410;DHT22;23275;48.914;12.566;2023-08-08T07:30:34;18.00;99.90
37410;DHT22;23275;48.914;12.566;2023-08-08T07:33:00;18.20;99.90
37410;DHT22;23275;48.914;12.566;2023-08-08T07:35:25;18.30;99.90
37410;DHT22;23275;48.914;12.566;2023-08-08T07:37:52;18.30;99.90
37410;DHT22;23275;48.914;12.566;2023-08-08T07:40:18;18.20;99.90
37410;DHT22;23275;48.914;12.566;2023-08-08T07:42:48;18.10;99.90
37410;DHT22;23275;48.914;12.566;2023-08-08T07:45:14;18.20;99.90
37410;DHT22;23275;48.914;12.566;2023-08-08T07:47:40;18.20;99.90
37410;DHT22;23275;48.914;12.566;2023-08-08T07:50:07;18.20;99.90
37410;DHT22;23275;48.914;12.566;2023-08-08T07:52:38;18.50;99.90
37410;DHT22;23275;48.914;12.566;2023-08-08T07:55:05;19.00;99.90
37410;DHT22;23275;48.914;12.566;2023-08-08T07:57:32;19.20;99.90
37410;DHT22;23275;48.914;12.566;2023-08-08T08:00:04;19.20;99.90
37410;DHT22;23275;48.914;12.566;2023-08-08T08:02:37;19.30;99.90
37410;DHT22;23275;48.914;12.566;2023-08-08T08:05:03;19.30;99.90
37410;DHT22;23275;48.914;12.566;2023-08-08T08:07:34;19.70;99.90
37410;DHT22;23275;48.914;12.566;2023-08-08T08:10:05;20.30;99.90
37410;DHT22;23275;48.914;12.566;2023-08-08T08:12:31;20.70;99.90
37410;DHT22;23275;48.914;12.566;2023-08-08T08:14:57;21.10;99.90
37410;DHT22;23275;48.914;12.566;2023-08-08T08:17:23;20.80;99.90
37410;DHT22;23275;48.914;12.566;2023-08-08T08:19:52;20.40;99.90
37410;DHT22;23275;48.914;12.566;2023-08-08T08:22:17;20.00;99.90
37410;DHT22;23275;48.914;12.566;2023-08-08T08:24:43;20.00;99.90
37410;DHT22;23275;48.914;12.566;2023-08-08T08:27:09;20.10;99.90
37410;DHT22;23275;48.914;12.566;2023-08-08T08:29:34;20.20;99.90
37410;DHT22;23275;48.914;12.566;2023-08-08T08:32:00;20.20;99.90
37410;DHT22;23275;48.914;12.566;2023-08-08T08:34:25;20.00;99.90
37410;DHT22;23275;48.914;12.566;2023-08-08T08:36:51;19.70;99.90
37410;DHT22;23275;48.914;12.566;2023-08-08T08:39:17;19.50;99.90
37410;DHT22;23275;48.914;12.566;2023-08-08T08:41:43;19.40;99.90
37410;DHT22;23275;48.914;12.566;2023-08-08T08:44:11;19.30;99.90
37410;DHT22;23275;48.914;12.566;2023-08-08T08:46:37;19.10;99.90
37410;DHT22;23275;48.914;12.566;2023-08-08T08:49:05;19.10;99.90
37410;DHT22;23275;48.914;12.566;2023-08-08T08:51:34;19.00;99.90
37410;DHT22;23275;48.914;12.566;2023-08-08T08:54:00;18.80;99.90
37410;DHT22;23275;48.914;12.566;2023-08-08T08:56:26;18.70;99.90
37410;DHT22;23275;48.914;12.566;2023-08-08T08:58:52;18.60;99.90
37410;DHT22;23275;48.914;12.566;2023-08-08T09:01:19;18.40;99.90
37410;DHT22;23275;48.914;12.566;2023-08-08T09:03:45;18.20;99.90
37410;DHT22;23275;48.914;12.566;2023-08-08T09:06:12;18.00;99.90
37410;DHT22;23275;48.914;12.566;2023-08-08T09:08:37;17.90;99.90
37410;DHT22;23275;48.914;12.566;2023-08-08T09:11:03;18.00;99.90
37410;DHT22;23275;48.914;12.566;2023-08-08T09:13:39;18.90;99.90
37410;DHT22;23275;48.914;12.566;2023-08-08T09:16:08;20.20;99.90
37410;DHT22;23275;48.914;12.566;2023-08-08T09:18:35;22.70;99.90
37410;DHT22;23275;48.914;12.566;2023-08-08T09:21:04;25.10;99.90
37410;DHT22;23275;48.914;12.566;2023-08-08T09:23:29;25.30;99.90
37410;DHT22;23275;48.914;12.566;2023-08-08T09:25:55;25.90;99.90
37410;DHT22;23275;48.914;12.566;2023-08-08T09:28:20;28.00;99.80
37410;DHT22;23275;48.914;12.566;2023-08-08T09:30:46;30.80;93.30
37410;DHT22;23275;48.914;12.566;2023-08-08T09:33:12;32.80;81.70
37410;DHT22;23275;48.914;12.566;2023-08-08T09:35:41;32.60;74.90
37410;DHT22;23275;48.914;12.566;2023-08-08T09:38:07;33.10;74.30
37410;DHT22;23275;48.914;12.566;2023-08-08T09:40:32;33.10;69.70
37410;DHT22;23275;48.914;12.566;2023-08-08T09:42:58;31.60;72.80
37410;DHT22;23275;48.914;12.566;2023-08-08T09:45:24;31.20;72.70
37410;DHT22;23275;48.914;12.566;2023-08-08T09:47:50;30.50;75.40
37410;DHT22;23275;48.914;12.566;2023-08-08T09:50:18;30.20;75.80
37410;DHT22;23275;48.914;12.566;2023-08-08T09:52:46;30.70;74.70
37410;DHT22;23275;48.914;12.566;2023-08-08T09:55:13;32.40;74.70
37410;DHT22;23275;48.914;12.566;2023-08-08T09:57:39;33.70;69.30
37410;DHT22;23275;48.914;12.566;2023-08-08T10:00:06;33.80;69.90
37410;DHT22;23275;48.914;12.566;2023-08-08T10:02:44;33.70;67.20
37410;DHT22;23275;48.914;12.566;2023-08-08T10:05:11;33.80;62.30
37410;DHT22;23275;48.914;12.566;2023-08-08T10:07:39;32.80;64.30
37410;DHT22;23275;48.914;12.566;2023-08-08T10:10:07;32.30;65.60
37410;DHT22;23275;48.914;12.566;2023-08-08T10:12:40;32.40;66.20
37410;DHT22;23275;48.914;12.566;2023-08-08T10:15:10;32.40;65.30
37410;DHT22;23275;48.914;12.566;2023-08-08T10:17:37;32.20;66.20
37410;DHT22;23275;48.914;12.566;2023-08-08T10:20:04;32.20;64.70
37410;DHT22;23275;48.914;12.566;2023-08-08T10:22:37;32.30;65.80
37410;DHT22;23275;48.914;12.566;2023-08-08T10:25:04;32.80;64.30
37410;DHT22;23275;48.914;12.566;2023-08-08T10:27:34;31.60;64.70
37410;DHT22;23275;48.914;12.566;2023-08-08T10:30:05;29.10;65.80
37410;DHT22;23275;48.914;12.566;2023-08-08T10:32:43;27.30;71.70
37410;DHT22;23275;48.914;12.566;2023-08-08T10:35:11;27.00;73.30
37410;DHT22;23275;48.914;12.566;2023-08-08T10:37:37;27.10;74.60
37410;DHT22;23275;48.914;12.566;2023-08-08T10:40:05;27.70;74.70
37410;DHT22;23275;48.914;12.566;2023-08-08T10:42:33;28.30;72.40
37410;DHT22;23275;48.914;12.566;2023-08-08T10:45:00;28.00;73.70
37410;DHT22;23275;48.914;12.566;2023-08-08T10:47:34;28.00;74.10
37410;DHT22;23275;48.914;12.566;2023-08-08T10:50:03;28.40;71.60
37410;DHT22;23275;48.914;12.566;2023-08-08T10:52:29;28.10;71.50
37410;DHT22;23275;48.914;12.566;2023-08-08T10:54:55;28.20;71.10
37410;DHT22;23275;48.914;12.566;2023-08-08T10:57:24;28.50;71.40
37410;DHT22;23275;48.914;12.566;2023-08-08T10:59:50;28.80;73.60
37410;DHT22;23275;48.914;12.566;2023-08-08T11:02:16;28.40;69.90
37410;DHT22;23275;48.914;12.566;2023-08-08T11:04:42;27.40;72.00
37410;DHT22;23275;48.914;12.566;2023-08-08T11:07:08;26.80;74.60
37410;DHT22;23275;48.914;12.566;2023-08-08T11:09:34;27.20;75.60
37410;DHT22;23275;48.914;12.566;2023-08-08T11:12:00;27.70;70.50
37410;DHT22;23275;48.914;12.566;2023-08-08T11:14:25;27.70;72.80
37410;DHT22;23275;48.914;12.566;2023-08-08T11:16:52;28.60;70.50
37410;DHT22;23275;48.914;12.566;2023-08-08T11:19:18;29.60;67.90
37410;DHT22;23275;48.914;12.566;2023-08-08T11:21:47;30.00;67.80
37410;DHT22;23275;48.914;12.566;2023-08-08T11:24:13;29.50;65.70
37410;DHT22;23275;48.914;12.566;2023-08-08T11:26:41;28.20;69.40
37410;DHT22;23275;48.914;12.566;2023-08-08T11:29:07;26.50;69.90
37410;DHT22;23275;48.914;12.566;2023-08-08T11:31:34;25.40;75.00
37410;DHT22;23275;48.914;12.566;2023-08-08T11:34:00;24.70;78.30
37410;DHT22;23275;48.914;12.566;2023-08-08T11:36:30;24.50;81.20
37410;DHT22;23275;48.914;12.566;2023-08-08T11:38:57;24.10;79.40
37410;DHT22;23275;48.914;12.566;2023-08-08T11:41:24;23.80;82.60
37410;DHT22;23275;48.914;12.566;2023-08-08T11:43:53;23.50;80.80
37410;DHT22;23275;48.914;12.566;2023-08-08T11:46:22;23.20;84.20
37410;DHT22;23275;48.914;12.566;2023-08-08T11:48:48;22.90;83.60
37410;DHT22;23275;48.914;12.566;2023-08-08T11:51:14;22.60;85.30
37410;DHT22;23275;48.914;12.566;2023-08-08T11:53:53;22.70;87.60
37410;DHT22;23275;48.914;12.566;2023-08-08T11:56:22;22.70;84.20
37410;DHT22;23275;48.914;12.566;2023-08-08T11:58:49;22.60;85.10
37410;DHT22;23275;48.914;12.566;2023-08-08T12:01:16;22.50;86.20
37410;DHT22;23275;48.914;12.566;2023-08-08T12:03:46;22.60;86.70
37410;DHT22;23275;48.914;12.566;2023-08-08T12:06:15;22.60;87.10
37410;DHT22;23275;48.914;12.566;2023-08-08T12:08:45;22.60;87.70
37410;DHT22;23275;48.914;12.566;2023-08-08T12:11:12;22.70;87.90
37410;DHT22;23275;48.914;12.566;2023-08-08T12:13:40;22.90;87.20
37410;DHT22;23275;48.914;12.566;2023-08-08T12:16:08;22.90;88.00
37410;DHT22;23275;48.914;12.566;2023-08-08T12:18:34;23.20;88.00
37410;DHT22;23275;48.914;12.566;2023-08-08T12:21:00;23.20;87.20
37410;DHT22;23275;48.914;12.566;2023-08-08T12:23:26;23.10;88.60
37410;DHT22;23275;48.914;12.566;2023-08-08T12:25:53;22.90;89.20
37410;DHT22;23275;48.914;12.566;2023-08-08T12:28:18;22.50;87.30
37410;DHT22;23275;48.914;12.566;2023-08-08T12:30:44;22.40;89.40
37410;DHT22;23275;48.914;12.566;2023-08-08T12:33:10;22.50;89.40
37410;DHT22;23275;48.914;12.566;2023-08-08T12:35:35;22.60;87.90
37410;DHT22;23275;48.914;12.566;2023-08-08T12:38:01;22.70;88.80
37410;DHT22;23275;48.914;12.566;2023-08-08T12:40:28;22.80;89.80
37410;DHT22;23275;48.914;12.566;2023-08-08T12:42:54;22.90;85.10
37410;DHT22;23275;48.914;12.566;2023-08-08T12:45:19;22.70;87.90
37410;DHT22;23275;48.914;12.566;2023-08-08T12:47:45;22.60;86.70
37410;DHT22;23275;48.914;12.566;2023-08-08T12:50:10;22.50;87.70
37410;DHT22;23275;48.914;12.566;2023-08-08T12:52:36;22.40;87.50
37410;DHT22;23275;48.914;12.566;2023-08-08T12:55:03;22.40;90.20
37410;DHT22;23275;48.914;12.566;2023-08-08T12:57:29;22.50;90.60
37410;DHT22;23275;48.914;12.566;2023-08-08T12:59:55;22.50;90.20
37410;DHT22;23275;48.914;12.566;2023-08-08T13:02:20;22.50;90.60
37410;DHT22;23275;48.914;12.566;2023-08-08T13:04:46;22.60;90.50
37410;DHT22;23275;48.914;12.566;2023-08-08T13:07:12;22.70;88.30
37410;DHT22;23275;48.914;12.566;2023-08-08T13:09:37;22.70;89.60
37410;DHT22;23275;48.914;12.566;2023-08-08T13:12:04;22.80;88.30
37410;DHT22;23275;48.914;12.566;2023-08-08T13:14:30;22.70;89.00
37410;DHT22;23275;48.914;12.566;2023-08-08T13:16:56;22.60;88.60
37410;DHT22;23275;48.914;12.566;2023-08-08T13:19:21;22.70;90.00
37410;DHT22;23275;48.914;12.566;2023-08-08T13:21:53;22.70;88.40
37410;DHT22;23275;48.914;12.566;2023-08-08T13:24:20;22.80;89.40
37410;DHT22;23275;48.914;12.566;2023-08-08T13:26:48;22.80;89.90
37410;DHT22;23275;48.914;12.566;2023-08-08T13:29:14;22.70;89.80
37410;DHT22;23275;48.914;12.566;2023-08-08T13:31:39;22.60;90.00
37410;DHT22;23275;48.914;12.566;2023-08-08T13:34:05;22.40;90.10
37410;DHT22;23275;48.914;12.566;2023-08-08T13:36:30;22.50;89.60
37410;DHT22;23275;48.914;12.566;2023-08-08T13:38:56;22.30;89.60
37410;DHT22;23275;48.914;12.566;2023-08-08T13:41:22;22.40;90.50
37410;DHT22;23275;48.914;12.566;2023-08-08T13:43:47;22.50;90.30
37410;DHT22;23275;48.914;12.566;2023-08-08T13:46:13;22.60;88.90
37410;DHT22;23275;48.914;12.566;2023-08-08T13:48:38;22.50;90.00
37410;DHT22;23275;48.914;12.566;2023-08-08T13:51:04;22.60;88.50
37410;DHT22;23275;48.914;12.566;2023-08-08T13:53:29;22.60;88.20
37410;DHT22;23275;48.914;12.566;2023-08-08T13:55:55;22.60;90.00
37410;DHT22;23275;48.914;12.566;2023-08-08T13:58:21;22.50;86.60
37410;DHT22;23275;48.914;12.566;2023-08-08T14:00:48;22.50;89.30
37410;DHT22;23275;48.914;12.566;2023-08-08T14:03:14;22.50;88.10
37410;DHT22;23275;48.914;12.566;2023-08-08T14:05:39;22.40;88.80
37410;DHT22;23275;48.914;12.566;2023-08-08T14:08:05;22.40;90.10
37410;DHT22;23275;48.914;12.566;2023-08-08T14:10:31;22.40;88.30
37410;DHT22;23275;48.914;12.566;2023-08-08T14:12:56;22.30;90.50
37410;DHT22;23275;48.914;12.566;2023-08-08T14:15:22;22.40;89.10
37410;DHT22;23275;48.914;12.566;2023-08-08T14:17:48;22.40;90.50
37410;DHT22;23275;48.914;12.566;2023-08-08T14:20:13;22.40;90.10
37410;DHT22;23275;48.914;12.566;2023-08-08T14:22:39;22.30;87.10
37410;DHT22;23275;48.914;12.566;2023-08-08T14:25:05;22.30;90.60
37410;DHT22;23275;48.914;12.566;2023-08-08T14:27:31;22.20;88.70
37410;DHT22;23275;48.914;12.566;2023-08-08T14:29:57;22.10;85.90
37410;DHT22;23275;48.914;12.566;2023-08-08T14:32:23;22.10;88.70
37410;DHT22;23275;48.914;12.566;2023-08-08T14:34:48;22.10;88.60
37410;DHT22;23275;48.914;12.566;2023-08-08T14:37:14;22.20;89.00
37410;DHT22;23275;48.914;12.566;2023-08-08T14:39:40;22.20;86.10
37410;DHT22;23275;48.914;12.566;2023-08-08T14:42:05;22.20;83.80
37410;DHT22;23275;48.914;12.566;2023-08-08T14:44:31;22.20;85.30
37410;DHT22;23275;48.914;12.566;2023-08-08T14:46:57;22.10;85.00
37410;DHT22;23275;48.914;12.566;2023-08-08T14:49:22;22.00;81.00
37410;DHT22;23275;48.914;12.566;2023-08-08T14:51:51;21.80;83.80
37410;DHT22;23275;48.914;12.566;2023-08-08T14:54:16;21.70;83.60
37410;DHT22;23275;48.914;12.566;2023-08-08T14:56:42;21.70;84.70
37410;DHT22;23275;48.914;12.566;2023-08-08T14:59:07;21.80;84.10
37410;DHT22;23275;48.914;12.566;2023-08-08T15:01:33;21.80;85.00
37410;DHT22;23275;48.914;12.566;2023-08-08T15:03:59;21.90;83.50
37410;DHT22;23275;48.914;12.566;2023-08-08T15:06:24;21.80;85.30
37410;DHT22;23275;48.914;12.566;2023-08-08T15:08:50;21.90;87.30
37410;DHT22;23275;48.914;12.566;2023-08-08T15:11:16;21.90;87.50
37410;DHT22;23275;48.914;12.566;2023-08-08T15:13:42;21.80;85.60